Lisbon, Portugal
Current Conditions -  °F | °C
As of 7:00 AM on Wednesday 22 Oct 2014 (Local Time) from LPPT Reporting Station
Clear Clear  
Wind Chill: 19°   Ceiling: Unl
Heat Index: 19°   Visibility: 6mi
Dew Point: 12°   Wind: 3mph
Humidity: 64%   Direction: 350°N
Pressure: 30.27"   Gusts: NA
Location:  38.72°N, 9.14°W
Report Text: LPPT 220600Z 35003KT CAVOK 19/12 Q1025
Loading
Personal Weather Stations






























Interactive Weather Map New forecast layout! Learn more

10-Day Weather Forecast

Advertisements
Track Severe Weather on mobile